createdAt,value
2022-08-22T00:01:38.342Z,6.18
2022-08-22T00:02:42.589Z,4.75
2022-08-22T00:02:56.461Z,5.05
2022-08-22T00:04:13.283Z,5.95
2022-08-22T00:06:50.712Z,6.57
2022-08-22T00:09:29.595Z,6.22
2022-08-22T00:12:08.315Z,6.75
2022-08-22T00:14:41.472Z,6.65
2022-08-22T00:17:29.173Z,6.68
2022-08-22T00:20:07.301Z,6.82
2022-08-22T00:22:40.683Z,6.32
2022-08-22T00:25:26.731Z,6.63
2022-08-22T00:27:58.386Z,6.30
2022-08-22T00:30:30.290Z,6.07
2022-08-22T00:33:02.774Z,6.35
2022-08-22T00:35:44.873Z,6.70
2022-08-22T00:38:19.001Z,6.53
2022-08-22T00:41:00.033Z,6.78
2022-08-22T00:44:01.840Z,7.63
2022-08-22T00:46:44.984Z,7.45
2022-08-22T00:49:24.537Z,7.47
2022-08-22T00:52:27.447Z,6.07
2022-08-22T00:55:18.478Z,5.43
2022-08-22T00:57:56.551Z,5.50
2022-08-22T01:00:27.086Z,5.40
2022-08-22T01:06:00.402Z,5.63
2022-08-22T01:08:40.488Z,6.45
2022-08-22T01:11:23.311Z,6.95
2022-08-22T01:14:05.259Z,6.82
2022-08-22T01:17:00.721Z,7.05
2022-08-22T01:20:05.248Z,6.43
2022-08-22T01:23:07.711Z,6.40
2022-08-22T01:26:19.450Z,7.03
2022-08-22T01:29:28.512Z,7.07
2022-08-22T01:32:21.044Z,7.10
2022-08-22T01:35:05.954Z,7.13
2022-08-22T01:38:10.264Z,6.93
2022-08-22T01:41:17.052Z,6.47
2022-08-22T01:44:03.227Z,7.03
2022-08-22T01:46:36.525Z,6.65
2022-08-22T01:49:11.436Z,6.78
2022-08-22T01:51:47.289Z,5.85
2022-08-22T01:54:26.333Z,6.07
2022-08-22T01:57:00.602Z,5.80
2022-08-22T01:59:34.607Z,5.68
2022-08-22T02:02:22.101Z,6.68
2022-08-22T02:04:56.787Z,5.97
2022-08-22T02:07:32.241Z,5.82
2022-08-22T02:10:10.986Z,7.07
2022-08-22T02:12:46.132Z,6.93
2022-08-22T02:15:20.114Z,7.85
2022-08-22T02:18:02.335Z,7.65
2022-08-22T02:20:34.274Z,7.93
2022-08-22T02:23:09.206Z,7.60
2022-08-22T02:25:50.965Z,7.78
2022-08-22T02:28:31.993Z,7.25
2022-08-22T02:31:04.218Z,7.50
2022-08-22T02:33:37.125Z,6.82
2022-08-22T02:36:11.865Z,7.10
2022-08-22T02:38:45.682Z,6.32
2022-08-22T02:41:18.970Z,6.40
2022-08-22T02:44:02.632Z,6.78
2022-08-22T02:46:41.008Z,7.18
2022-08-22T02:49:13.840Z,7.07
2022-08-22T02:51:48.789Z,7.10
2022-08-22T02:54:21.853Z,8.00
2022-08-22T02:56:53.998Z,7.15
2022-08-22T02:59:34.770Z,7.25
2022-08-22T03:02:28.282Z,7.40
2022-08-22T03:04:58.719Z,7.32
2022-08-22T03:07:33.833Z,7.10
2022-08-22T03:10:15.675Z,7.35
2022-08-22T03:12:53.607Z,6.93
2022-08-22T03:15:28.972Z,6.75
2022-08-22T03:18:05.387Z,6.30
2022-08-22T03:20:43.180Z,6.07
2022-08-22T03:23:17.634Z,6.85
2022-08-22T03:25:53.053Z,6.93
2022-08-22T03:28:23.930Z,7.57
2022-08-22T03:31:00.511Z,6.78
2022-08-22T03:33:30.457Z,6.60
2022-08-22T03:36:04.427Z,6.22
2022-08-22T03:38:45.655Z,5.38
2022-08-22T03:41:43.559Z,5.78
2022-08-22T03:44:40.236Z,6.22
2022-08-22T03:47:37.122Z,6.68
2022-08-22T03:50:25.314Z,6.60
2022-08-22T03:53:39.678Z,6.15
2022-08-22T03:56:33.140Z,6.05
2022-08-22T03:59:23.564Z,6.38
2022-08-22T04:02:42.061Z,4.68
2022-08-22T04:05:25.230Z,5.35
2022-08-22T04:08:11.276Z,5.20
2022-08-22T04:11:21.538Z,5.65
2022-08-22T04:14:13.101Z,5.05
2022-08-22T04:17:15.463Z,5.82
2022-08-22T04:20:16.671Z,6.15
2022-08-22T04:22:58.896Z,5.75
2022-08-22T04:25:32.596Z,5.78
2022-08-22T04:28:04.868Z,6.30
2022-08-22T04:30:36.637Z,5.97
2022-08-22T04:33:10.003Z,5.18
2022-08-22T04:35:44.380Z,5.97
2022-08-22T04:38:16.809Z,6.95
2022-08-22T04:40:50.222Z,7.15
2022-08-22T04:43:24.075Z,6.85
2022-08-22T04:45:58.854Z,7.28
2022-08-22T04:48:33.568Z,6.85
2022-08-22T04:51:04.951Z,6.25
2022-08-22T04:53:57.344Z,7.32
2022-08-22T04:56:35.721Z,5.63
2022-08-22T04:59:09.640Z,5.50
2022-08-22T05:01:44.209Z,5.43
2022-08-22T05:04:16.690Z,6.00
2022-08-22T05:06:47.585Z,7.07
2022-08-22T05:09:20.933Z,6.10
2022-08-22T05:11:51.431Z,6.03
2022-08-22T05:16:53.978Z,7.95
2022-08-22T05:19:31.780Z,6.25
2022-08-22T05:22:00.906Z,6.60
2022-08-22T05:24:33.880Z,6.45
2022-08-22T05:27:13.199Z,6.60
2022-08-22T05:29:44.447Z,6.80
2022-08-22T05:32:19.184Z,6.18
2022-08-22T05:34:48.769Z,6.43
2022-08-22T05:37:22.517Z,6.22
2022-08-22T05:39:54.128Z,6.47
2022-08-22T05:42:26.495Z,7.45
2022-08-22T05:44:55.488Z,7.40
2022-08-22T05:47:28.981Z,7.80
2022-08-22T05:50:00.995Z,7.82
2022-08-22T05:52:40.978Z,8.00
2022-08-22T05:55:25.070Z,8.80
2022-08-22T05:58:06.837Z,7.93
2022-08-22T06:00:39.381Z,8.27
2022-08-22T06:03:16.096Z,8.73
2022-08-22T06:05:48.726Z,8.77
2022-08-22T06:08:21.590Z,9.88
2022-08-22T06:10:54.059Z,10.27
2022-08-22T06:13:28.101Z,10.40
2022-08-22T06:16:09.272Z,11.13
2022-08-22T06:18:41.341Z,11.70
2022-08-22T06:21:13.138Z,10.52
2022-08-22T06:23:44.821Z,11.55
2022-08-22T06:26:20.528Z,11.48
2022-08-22T06:28:55.630Z,12.45
2022-08-22T06:31:27.258Z,12.13
2022-08-22T06:34:00.460Z,12.23
2022-08-22T06:36:32.514Z,11.93
2022-08-22T06:39:09.083Z,12.25
2022-08-22T06:41:40.941Z,11.20
2022-08-22T06:44:11.267Z,10.95
2022-08-22T06:46:40.484Z,11.60
2022-08-22T06:49:10.622Z,11.55
2022-08-22T06:51:40.209Z,10.60
2022-08-22T06:54:14.867Z,11.10
2022-08-22T06:56:45.873Z,11.07
2022-08-22T06:59:16.381Z,10.65
2022-08-22T07:01:50.219Z,10.35
2022-08-22T07:04:25.862Z,10.57
2022-08-22T07:06:55.979Z,10.60
2022-08-22T07:09:27.591Z,9.95
2022-08-22T07:11:57.988Z,10.63
2022-08-22T07:16:58.169Z,10.35
2022-08-22T07:19:29.999Z,10.18
2022-08-22T07:21:59.447Z,10.77
2022-08-22T07:24:31.062Z,9.47
2022-08-22T07:27:15.980Z,9.45
2022-08-22T07:29:49.572Z,9.25
2022-08-22T07:32:20.926Z,9.48
2022-08-22T07:35:03.072Z,9.35
2022-08-22T07:37:46.201Z,9.18
2022-08-22T07:40:20.975Z,9.20
2022-08-22T07:42:52.655Z,8.48
2022-08-22T07:45:34.931Z,8.63
2022-08-22T07:48:25.108Z,8.65
2022-08-22T07:51:08.883Z,7.97
2022-08-22T07:53:43.907Z,8.00
2022-08-22T07:56:16.565Z,8.98
2022-08-22T07:58:46.458Z,8.20
2022-08-22T08:01:19.629Z,8.27
2022-08-22T08:03:52.545Z,7.95
2022-08-22T08:06:24.147Z,7.70
2022-08-22T08:08:53.255Z,8.25
2022-08-22T08:11:23.812Z,7.65
2022-08-22T08:13:55.871Z,7.65
2022-08-22T08:16:26.644Z,8.07
2022-08-22T08:18:58.136Z,7.32
2022-08-22T08:26:28.892Z,4.75
2022-08-22T08:28:58.227Z,4.63
2022-08-22T08:31:31.952Z,4.45
2022-08-22T08:34:05.175Z,5.30
2022-08-22T08:36:41.646Z,4.97
2022-08-22T08:39:18.245Z,4.40
2022-08-22T08:42:20.308Z,3.78
2022-08-22T08:45:11.739Z,5.32
2022-08-22T08:48:17.224Z,5.65
2022-08-22T08:50:59.446Z,4.32
2022-08-22T08:53:50.966Z,3.83
2022-08-22T08:56:26.887Z,3.60
2022-08-22T08:59:01.293Z,3.15
2022-08-22T09:01:46.537Z,3.30
2022-08-22T09:04:46.827Z,3.70
2022-08-22T09:07:44.189Z,3.23
2022-08-22T09:10:27.315Z,3.08
2022-08-22T09:13:18.255Z,4.00
2022-08-22T09:16:05.206Z,3.65
2022-08-22T09:18:50.358Z,2.88
2022-08-22T09:21:31.235Z,3.42
2022-08-22T09:24:36.467Z,3.28
2022-08-22T09:27:08.726Z,3.88
2022-08-22T09:29:51.518Z,3.50
2022-08-22T09:32:33.759Z,3.63
2022-08-22T09:35:08.623Z,3.95
2022-08-22T09:37:46.466Z,3.50
2022-08-22T09:43:03.856Z,3.65
2022-08-22T09:45:47.911Z,4.00
2022-08-22T09:48:34.649Z,3.08
2022-08-22T09:51:33.210Z,3.72
2022-08-22T09:54:14.780Z,3.17
2022-08-22T09:56:53.519Z,2.67
2022-08-22T09:59:26.811Z,3.22
2022-08-22T10:02:00.874Z,3.30
2022-08-22T10:04:42.115Z,3.40
2022-08-22T10:07:25.420Z,3.70
2022-08-22T10:10:01.813Z,3.78
2022-08-22T10:12:36.233Z,3.70
2022-08-22T10:15:17.100Z,2.95
2022-08-22T10:17:58.942Z,3.20
2022-08-22T10:20:32.802Z,2.97
2022-08-22T10:23:14.775Z,3.42
2022-08-22T10:25:45.352Z,3.33
2022-08-22T10:28:19.465Z,3.30
2022-08-22T10:31:10.842Z,3.30
2022-08-22T10:33:44.387Z,2.92
2022-08-22T10:36:16.926Z,2.70
2022-08-22T10:38:48.743Z,2.70
2022-08-22T10:41:28.601Z,2.47
2022-08-22T10:44:04.114Z,2.50
2022-08-22T10:46:37.955Z,2.10
2022-08-22T10:49:10.374Z,2.10
2022-08-22T10:51:45.594Z,2.15
2022-08-22T10:54:28.513Z,2.28
2022-08-22T10:57:07.890Z,2.33
2022-08-22T10:59:40.307Z,2.10
2022-08-22T11:02:30.504Z,2.50
2022-08-22T11:05:15.456Z,2.05
2022-08-22T11:07:48.873Z,1.88
2022-08-22T11:10:25.090Z,2.03
2022-08-22T11:13:12.077Z,1.75
2022-08-22T11:16:09.433Z,1.85
2022-08-22T11:19:01.911Z,1.98
2022-08-22T11:21:46.987Z,1.80
2022-08-22T11:24:55.785Z,1.70
2022-08-22T11:27:39.967Z,2.08
2022-08-22T11:30:18.052Z,2.00
2022-08-22T11:33:11.311Z,1.67
2022-08-22T11:35:47.177Z,1.60
2022-08-22T11:38:21.773Z,1.60
2022-08-22T11:40:58.183Z,2.05
2022-08-22T11:43:39.117Z,1.83
2022-08-22T11:46:24.492Z,1.80
2022-08-22T11:49:06.385Z,1.88
2022-08-22T11:52:13.989Z,1.90
2022-08-22T11:54:59.157Z,2.22
2022-08-22T11:57:32.626Z,1.80
2022-08-22T12:00:11.488Z,1.80
2022-08-22T12:02:49.114Z,1.75
2022-08-22T12:05:26.296Z,2.00
2022-08-22T12:08:06.686Z,1.73
2022-08-22T12:10:37.641Z,2.15
2022-08-22T12:13:09.460Z,1.55
2022-08-22T12:15:44.864Z,1.80
2022-08-22T12:18:30.180Z,1.88
2022-08-22T12:21:39.833Z,1.80
2022-08-22T12:24:34.501Z,1.50
2022-08-22T12:27:34.901Z,1.83
2022-08-22T12:30:12.955Z,1.67
2022-08-22T12:33:05.790Z,2.42
2022-08-22T12:35:41.340Z,1.90
2022-08-22T12:38:28.906Z,1.88
2022-08-22T12:41:28.093Z,1.88
2022-08-22T12:44:17.347Z,1.90
2022-08-22T12:46:56.026Z,1.88
2022-08-22T12:49:38.558Z,1.92
2022-08-22T12:52:17.041Z,2.00
2022-08-22T12:54:53.332Z,2.10
2022-08-22T12:57:29.259Z,2.08
2022-08-22T13:00:08.477Z,2.08
2022-08-22T13:02:41.703Z,1.88
2022-08-22T13:05:13.760Z,2.10
2022-08-22T13:07:52.686Z,2.13
2022-08-22T13:10:40.801Z,1.40
2022-08-22T13:13:14.688Z,1.90
2022-08-22T13:15:53.915Z,1.65
2022-08-22T13:18:29.889Z,1.90
2022-08-22T13:21:02.753Z,1.83
2022-08-22T13:23:34.391Z,1.75
2022-08-22T13:26:12.053Z,1.83
2022-08-22T13:29:04.195Z,1.63
2022-08-22T13:31:39.701Z,1.90
2022-08-22T13:34:13.432Z,1.50
2022-08-22T13:36:43.570Z,1.65
2022-08-22T13:39:26.314Z,1.67
2022-08-22T13:41:56.368Z,2.00
2022-08-22T13:44:28.731Z,1.83
2022-08-22T13:47:14.222Z,1.67
2022-08-22T13:49:45.867Z,1.70
2022-08-22T13:52:29.206Z,2.10
2022-08-22T13:55:02.507Z,2.05
2022-08-22T13:57:34.745Z,2.05
2022-08-22T14:00:11.968Z,1.90
2022-08-22T14:03:01.805Z,2.10
2022-08-22T14:05:37.647Z,1.90
2022-08-22T14:08:15.805Z,2.03
2022-08-22T14:10:54.925Z,1.58
2022-08-22T14:13:39.636Z,1.85
2022-08-22T14:16:15.021Z,1.88
2022-08-22T14:18:49.559Z,2.05
2022-08-22T14:21:33.514Z,1.80
2022-08-22T14:24:17.340Z,1.95
2022-08-22T14:26:57.906Z,2.40
2022-08-22T14:29:28.221Z,1.88
2022-08-22T14:32:05.507Z,2.20
2022-08-22T14:34:41.131Z,1.75
2022-08-22T14:37:17.104Z,1.65
2022-08-22T14:39:47.909Z,1.67
2022-08-22T14:42:22.843Z,1.77
2022-08-22T14:45:01.969Z,2.10
2022-08-22T14:47:55.591Z,1.73
2022-08-22T14:50:42.273Z,2.38
2022-08-22T14:53:13.284Z,1.95
2022-08-22T14:55:43.123Z,2.00
2022-08-22T14:58:17.126Z,2.22
2022-08-22T15:00:47.956Z,2.03
2022-08-22T15:03:26.676Z,1.80
2022-08-22T15:05:57.255Z,2.13
2022-08-22T15:08:31.490Z,2.08
2022-08-22T15:11:08.959Z,1.77
2022-08-22T15:13:37.946Z,2.25
2022-08-22T15:16:16.102Z,2.13
2022-08-22T15:18:51.796Z,1.75
2022-08-22T15:21:28.862Z,1.88
2022-08-22T15:24:00.556Z,1.70
2022-08-22T15:26:32.973Z,1.63
2022-08-22T15:29:08.586Z,2.10
2022-08-22T15:31:41.460Z,1.27
2022-08-22T15:34:18.188Z,1.63
2022-08-22T15:37:28.506Z,1.33
2022-08-22T15:42:39.121Z,1.40
2022-08-22T15:45:18.703Z,1.33
2022-08-22T15:47:52.126Z,1.30
2022-08-22T15:50:34.284Z,1.27
2022-08-22T15:53:12.244Z,1.30
2022-08-22T15:56:20.793Z,1.20
2022-08-22T15:58:50.554Z,1.10
2022-08-22T16:01:22.144Z,1.17
2022-08-22T16:03:55.879Z,1.38
2022-08-22T16:06:44.066Z,1.27
2022-08-22T16:09:31.197Z,1.30
2022-08-22T16:12:00.120Z,1.30
2022-08-22T16:14:47.390Z,1.55
2022-08-22T16:17:45.201Z,1.40
2022-08-22T16:20:51.273Z,1.30
2022-08-22T16:23:21.049Z,1.40
2022-08-22T16:26:08.910Z,1.10
2022-08-22T16:29:03.835Z,1.20
2022-08-22T16:31:34.811Z,1.30
2022-08-22T16:34:22.445Z,1.33
2022-08-22T16:36:52.776Z,1.20
2022-08-22T16:42:28.706Z,1.48
2022-08-22T16:45:09.900Z,1.20
2022-08-22T16:47:42.893Z,1.40
2022-08-22T16:50:32.252Z,1.60
2022-08-22T16:53:04.757Z,1.25
2022-08-22T16:55:52.102Z,1.40
2022-08-22T16:58:57.732Z,1.55
2022-08-22T17:01:39.166Z,1.15
2022-08-22T17:04:16.685Z,1.40
2022-08-22T17:07:07.257Z,1.50
2022-08-22T17:10:12.528Z,1.75
2022-08-22T17:12:54.177Z,1.50
2022-08-22T17:15:30.267Z,1.60
2022-08-22T17:18:16.030Z,1.58
2022-08-22T17:20:48.800Z,1.50
2022-08-22T17:23:25.705Z,1.63
2022-08-22T17:26:02.495Z,1.50
2022-08-22T17:28:41.555Z,1.50
2022-08-22T17:31:16.051Z,1.80
2022-08-22T17:34:03.390Z,1.50
2022-08-22T17:36:42.927Z,1.30
2022-08-22T17:39:24.470Z,1.40
2022-08-22T17:41:56.494Z,1.45
2022-08-22T17:44:44.068Z,1.42
2022-08-22T17:47:16.351Z,1.55
2022-08-22T17:49:53.001Z,1.63
2022-08-22T17:52:25.761Z,1.50
2022-08-22T17:54:58.584Z,1.80
2022-08-22T17:57:30.618Z,1.63
2022-08-22T18:00:03.646Z,1.80
2022-08-22T18:02:35.342Z,1.85
2022-08-22T18:05:08.006Z,1.70
2022-08-22T18:07:54.383Z,1.50
2022-08-22T18:10:39.645Z,1.40
2022-08-22T18:13:12.095Z,1.52
2022-08-22T18:15:47.710Z,1.67
2022-08-22T18:18:30.127Z,1.67
2022-08-22T18:21:03.411Z,1.52
2022-08-22T18:23:39.891Z,1.50
2022-08-22T18:26:20.211Z,2.40
2022-08-22T18:28:52.075Z,2.73
2022-08-22T18:31:38.184Z,2.40
2022-08-22T18:34:15.088Z,2.70
2022-08-22T18:36:51.716Z,2.40
2022-08-22T18:39:27.452Z,2.30
2022-08-22T18:42:01.891Z,1.95
2022-08-22T18:44:34.730Z,2.20
2022-08-22T18:47:13.907Z,1.73
2022-08-22T18:49:48.400Z,1.90
2022-08-22T18:52:38.506Z,1.90
2022-08-22T18:55:29.031Z,1.80
2022-08-22T19:00:42.939Z,2.10
2022-08-22T19:03:25.244Z,1.80
2022-08-22T19:06:19.112Z,1.70
2022-08-22T19:09:37.983Z,2.13
2022-08-22T19:12:17.184Z,2.53
2022-08-22T19:15:13.726Z,1.95
2022-08-22T19:17:59.328Z,1.73
2022-08-22T19:20:49.395Z,1.52
2022-08-22T19:23:43.624Z,1.60
2022-08-22T19:26:42.899Z,2.15
2022-08-22T19:29:59.832Z,1.50
2022-08-22T19:33:01.568Z,1.55
2022-08-22T19:35:40.153Z,1.60
2022-08-22T19:38:10.217Z,1.67
2022-08-22T19:40:55.856Z,2.00
2022-08-22T19:43:35.755Z,1.90
2022-08-22T19:46:07.201Z,2.28
2022-08-22T19:48:45.520Z,2.20
2022-08-22T19:51:26.180Z,2.10
2022-08-22T19:54:16.371Z,2.30
2022-08-22T19:59:37.445Z,2.10
2022-08-22T20:02:20.857Z,2.50
2022-08-22T20:05:05.057Z,2.10
2022-08-22T20:07:43.806Z,2.38
2022-08-22T20:10:21.217Z,2.40
2022-08-22T20:13:02.157Z,2.40
2022-08-22T20:15:31.766Z,2.38
2022-08-22T20:21:00.511Z,2.42
2022-08-22T20:23:32.237Z,2.65
2022-08-22T20:26:01.113Z,2.30
2022-08-22T20:28:37.439Z,2.60
2022-08-22T20:31:10.877Z,2.78
2022-08-22T20:33:41.856Z,2.60
2022-08-22T20:36:28.005Z,2.55
2022-08-22T20:39:01.600Z,2.72
2022-08-22T20:41:33.790Z,2.60
2022-08-22T20:44:06.722Z,2.75
2022-08-22T20:46:53.836Z,2.47
2022-08-22T20:49:26.292Z,2.60
2022-08-22T20:51:56.350Z,2.75
2022-08-22T20:54:28.153Z,2.70
2022-08-22T20:56:59.874Z,2.55
2022-08-22T20:59:39.365Z,2.83
2022-08-22T21:02:11.987Z,2.53
2022-08-22T21:04:52.912Z,2.50
2022-08-22T21:07:27.203Z,2.45
2022-08-22T21:10:22.123Z,2.30
2022-08-22T21:13:06.297Z,2.45
2022-08-22T21:15:36.909Z,2.15
2022-08-22T21:18:06.905Z,2.47
2022-08-22T21:20:37.748Z,2.60
2022-08-22T21:23:08.996Z,2.88
2022-08-22T21:25:51.993Z,2.63
2022-08-22T21:28:32.218Z,2.65
2022-08-22T21:31:02.441Z,2.90
2022-08-22T21:33:30.870Z,2.70
2022-08-22T21:36:00.776Z,2.53
2022-08-22T21:38:29.358Z,2.38
2022-08-22T21:41:05.314Z,2.50
2022-08-22T21:43:36.846Z,2.78
2022-08-22T21:46:05.846Z,2.40
2022-08-22T21:48:37.815Z,2.50
2022-08-22T21:51:29.390Z,2.10
2022-08-22T21:54:39.881Z,2.67
2022-08-22T21:57:35.548Z,2.50
2022-08-22T22:00:11.029Z,2.70
2022-08-22T22:02:41.055Z,2.75
2022-08-22T22:05:11.842Z,2.50
2022-08-22T22:07:42.877Z,2.83
2022-08-22T22:10:14.004Z,2.50
2022-08-22T22:12:45.245Z,2.90
2022-08-22T22:15:16.892Z,2.60
2022-08-22T22:17:45.360Z,2.30
2022-08-22T22:20:15.746Z,2.70
2022-08-22T22:22:46.223Z,2.35
2022-08-22T22:25:38.815Z,2.50
2022-08-22T22:28:08.819Z,2.60
2022-08-22T22:30:37.368Z,2.95
2022-08-22T22:33:06.307Z,2.88
2022-08-22T22:35:35.243Z,2.80
2022-08-22T22:38:03.765Z,2.75
2022-08-22T22:40:32.356Z,3.10
2022-08-22T22:43:00.817Z,2.60
2022-08-22T22:45:30.871Z,2.58
2022-08-22T22:47:59.386Z,2.90
2022-08-22T22:50:28.035Z,2.85
2022-08-22T22:52:56.350Z,3.05
2022-08-22T22:55:25.338Z,2.67
2022-08-22T22:57:59.206Z,2.70
2022-08-22T23:00:32.242Z,2.80
2022-08-22T23:03:01.492Z,2.85
2022-08-22T23:05:30.156Z,2.85
2022-08-22T23:07:59.471Z,2.80
2022-08-22T23:10:28.943Z,2.67
2022-08-22T23:12:58.546Z,2.80
2022-08-22T23:15:27.409Z,2.60
2022-08-22T23:17:57.284Z,2.80
2022-08-22T23:20:25.800Z,2.63
2022-08-22T23:22:54.287Z,2.75
2022-08-22T23:25:22.668Z,3.25
2022-08-22T23:27:52.586Z,3.20
2022-08-22T23:30:21.600Z,3.22
2022-08-22T23:32:50.331Z,2.85
2022-08-22T23:35:20.199Z,2.90
2022-08-22T23:37:48.587Z,3.00
2022-08-22T23:40:16.998Z,3.22
2022-08-22T23:42:45.478Z,2.85
2022-08-22T23:45:13.900Z,3.00
2022-08-22T23:47:42.250Z,2.63
2022-08-22T23:50:10.918Z,2.80
2022-08-22T23:52:40.558Z,2.70
2022-08-22T23:55:09.690Z,2.80
2022-08-22T23:57:38.033Z,3.10
